sensor_id;sensor_type;location;lat;lon;timestamp;temperature;humidity
11256;HTU21D;5685;52.384;13.420;2022-09-29T00:02:36;19.10;99.90
11256;HTU21D;5685;52.384;13.420;2022-09-29T00:05:43;19.00;99.90
11256;HTU21D;5685;52.384;13.420;2022-09-29T00:08:47;19.00;99.90
11256;HTU21D;5685;52.384;13.420;2022-09-29T00:11:53;19.00;99.90
11256;HTU21D;5685;52.384;13.420;2022-09-29T00:14:55;19.00;99.90
11256;HTU21D;5685;52.384;13.420;2022-09-29T00:17:57;19.10;99.90
11256;HTU21D;5685;52.384;13.420;2022-09-29T00:21:02;19.00;99.90
11256;HTU21D;5685;52.384;13.420;2022-09-29T00:24:06;19.00;99.90
11256;HTU21D;5685;52.384;13.420;2022-09-29T00:27:08;19.00;99.90
11256;HTU21D;5685;52.384;13.420;2022-09-29T00:30:11;19.00;99.90
11256;HTU21D;5685;52.384;13.420;2022-09-29T00:33:13;19.00;99.90
11256;HTU21D;5685;52.384;13.420;2022-09-29T00:36:18;19.00;99.90
11256;HTU21D;5685;52.384;13.420;2022-09-29T00:39:21;19.00;99.90
11256;HTU21D;5685;52.384;13.420;2022-09-29T00:42:23;19.00;99.90
11256;HTU21D;5685;52.384;13.420;2022-09-29T00:45:26;19.00;99.90
11256;HTU21D;5685;52.384;13.420;2022-09-29T00:48:31;19.00;99.90
11256;HTU21D;5685;52.384;13.420;2022-09-29T00:51:36;19.00;99.90
11256;HTU21D;5685;52.384;13.420;2022-09-29T00:54:42;19.00;99.90
11256;HTU21D;5685;52.384;13.420;2022-09-29T00:57:50;19.00;99.90
11256;HTU21D;5685;52.384;13.420;2022-09-29T01:00:55;19.00;99.90
11256;HTU21D;5685;52.384;13.420;2022-09-29T01:04:00;19.00;99.90
11256;HTU21D;5685;52.384;13.420;2022-09-29T01:07:08;19.00;99.90
11256;HTU21D;5685;52.384;13.420;2022-09-29T01:10:13;19.00;99.90
11256;HTU21D;5685;52.384;13.420;2022-09-29T01:13:17;19.00;99.90
11256;HTU21D;5685;52.384;13.420;2022-09-29T01:16:19;19.00;99.90
11256;HTU21D;5685;52.384;13.420;2022-09-29T01:19:29;19.00;99.90
11256;HTU21D;5685;52.384;13.420;2022-09-29T01:23:03;19.00;99.90
11256;HTU21D;5685;52.384;13.420;2022-09-29T01:26:37;19.00;99.90
11256;HTU21D;5685;52.384;13.420;2022-09-29T01:30:17;19.00;99.90
11256;HTU21D;5685;52.384;13.420;2022-09-29T01:33:31;19.00;99.90
11256;HTU21D;5685;52.384;13.420;2022-09-29T01:36:44;19.00;99.90
11256;HTU21D;5685;52.384;13.420;2022-09-29T01:39:56;19.00;99.90
11256;HTU21D;5685;52.384;13.420;2022-09-29T01:43:06;19.00;99.90
11256;HTU21D;5685;52.384;13.420;2022-09-29T01:46:14;18.90;99.90
11256;HTU21D;5685;52.384;13.420;2022-09-29T01:49:22;19.00;99.90
11256;HTU21D;5685;52.384;13.420;2022-09-29T01:52:29;18.90;99.90
11256;HTU21D;5685;52.384;13.420;2022-09-29T01:55:40;18.90;99.90
11256;HTU21D;5685;52.384;13.420;2022-09-29T01:58:48;18.90;99.90
11256;HTU21D;5685;52.384;13.420;2022-09-29T02:01:57;18.90;99.90
11256;HTU21D;5685;52.384;13.420;2022-09-29T02:05:08;18.90;99.90
11256;HTU21D;5685;52.384;13.420;2022-09-29T02:08:15;18.90;99.90
11256;HTU21D;5685;52.384;13.420;2022-09-29T02:11:18;18.90;99.90
11256;HTU21D;5685;52.384;13.420;2022-09-29T02:14:24;18.90;99.90
11256;HTU21D;5685;52.384;13.420;2022-09-29T02:17:31;18.90;99.90
11256;HTU21D;5685;52.384;13.420;2022-09-29T02:20:36;18.90;99.90
11256;HTU21D;5685;52.384;13.420;2022-09-29T02:23:38;18.90;99.90
11256;HTU21D;5685;52.384;13.420;2022-09-29T02:26:41;18.90;99.90
11256;HTU21D;5685;52.384;13.420;2022-09-29T02:29:45;18.90;99.90
11256;HTU21D;5685;52.384;13.420;2022-09-29T02:32:47;18.90;99.90
11256;HTU21D;5685;52.384;13.420;2022-09-29T02:36:00;18.90;99.90
11256;HTU21D;5685;52.384;13.420;2022-09-29T02:39:13;18.90;99.90
11256;HTU21D;5685;52.384;13.420;2022-09-29T02:42:25;18.90;99.90
11256;HTU21D;5685;52.384;13.420;2022-09-29T02:45:36;18.90;99.90
11256;HTU21D;5685;52.384;13.420;2022-09-29T02:49:07;18.90;99.90
11256;HTU21D;5685;52.384;13.420;2022-09-29T02:52:24;18.90;99.90
11256;HTU21D;5685;52.384;13.420;2022-09-29T02:55:34;18.90;99.90
11256;HTU21D;5685;52.384;13.420;2022-09-29T02:58:42;18.90;99.90
11256;HTU21D;5685;52.384;13.420;2022-09-29T03:01:48;18.90;99.90
11256;HTU21D;5685;52.384;13.420;2022-09-29T03:04:51;18.90;99.90
11256;HTU21D;5685;52.384;13.420;2022-09-29T03:07:56;18.90;99.90
11256;HTU21D;5685;52.384;13.420;2022-09-29T03:10:58;18.90;99.90
11256;HTU21D;5685;52.384;13.420;2022-09-29T03:14:00;18.90;99.90
11256;HTU21D;5685;52.384;13.420;2022-09-29T03:17:02;18.90;99.90
11256;HTU21D;5685;52.384;13.420;2022-09-29T03:20:05;18.90;99.90
11256;HTU21D;5685;52.384;13.420;2022-09-29T03:23:09;18.90;99.90
11256;HTU21D;5685;52.384;13.420;2022-09-29T03:26:12;18.90;99.90
11256;HTU21D;5685;52.384;13.420;2022-09-29T03:29:14;18.80;99.90
11256;HTU21D;5685;52.384;13.420;2022-09-29T03:32:16;18.80;99.90
11256;HTU21D;5685;52.384;13.420;2022-09-29T03:35:18;18.90;99.90
11256;HTU21D;5685;52.384;13.420;2022-09-29T03:38:21;18.80;99.90
11256;HTU21D;5685;52.384;13.420;2022-09-29T03:41:23;18.80;99.90
11256;HTU21D;5685;52.384;13.420;2022-09-29T03:44:26;18.80;99.90
11256;HTU21D;5685;52.384;13.420;2022-09-29T03:47:28;18.80;99.90
11256;HTU21D;5685;52.384;13.420;2022-09-29T03:50:30;18.80;99.90
11256;HTU21D;5685;52.384;13.420;2022-09-29T03:53:34;18.80;99.90
11256;HTU21D;5685;52.384;13.420;2022-09-29T03:56:37;18.80;99.90
11256;HTU21D;5685;52.384;13.420;2022-09-29T03:59:39;18.80;99.90
11256;HTU21D;5685;52.384;13.420;2022-09-29T04:02:41;18.80;99.90
11256;HTU21D;5685;52.384;13.420;2022-09-29T04:05:44;18.80;99.90
11256;HTU21D;5685;52.384;13.420;2022-09-29T04:08:47;18.80;99.90
11256;HTU21D;5685;52.384;13.420;2022-09-29T04:14:52;18.80;99.90
11256;HTU21D;5685;52.384;13.420;2022-09-29T04:17:54;18.80;99.90
11256;HTU21D;5685;52.384;13.420;2022-09-29T04:20:57;18.80;99.90
11256;HTU21D;5685;52.384;13.420;2022-09-29T04:24:01;18.80;99.90
11256;HTU21D;5685;52.384;13.420;2022-09-29T04:27:03;18.80;99.90
11256;HTU21D;5685;52.384;13.420;2022-09-29T04:30:06;18.80;99.90
11256;HTU21D;5685;52.384;13.420;2022-09-29T04:33:09;18.80;99.90
11256;HTU21D;5685;52.384;13.420;2022-09-29T04:36:11;18.80;99.90
11256;HTU21D;5685;52.384;13.420;2022-09-29T04:39:15;18.80;99.90
11256;HTU21D;5685;52.384;13.420;2022-09-29T04:42:17;18.80;99.90
11256;HTU21D;5685;52.384;13.420;2022-09-29T04:45:20;18.80;99.90
11256;HTU21D;5685;52.384;13.420;2022-09-29T04:48:22;18.80;99.90
11256;HTU21D;5685;52.384;13.420;2022-09-29T04:51:24;18.70;99.90
11256;HTU21D;5685;52.384;13.420;2022-09-29T04:54:30;18.70;99.90
11256;HTU21D;5685;52.384;13.420;2022-09-29T04:57:33;18.70;99.90
11256;HTU21D;5685;52.384;13.420;2022-09-29T05:00:35;18.70;99.90
11256;HTU21D;5685;52.384;13.420;2022-09-29T05:03:37;18.70;99.90
11256;HTU21D;5685;52.384;13.420;2022-09-29T05:06:39;18.70;99.90
11256;HTU21D;5685;52.384;13.420;2022-09-29T05:09:42;18.70;99.90
11256;HTU21D;5685;52.384;13.420;2022-09-29T05:12:48;18.70;99.90
11256;HTU21D;5685;52.384;13.420;2022-09-29T05:15:55;18.70;99.90
11256;HTU21D;5685;52.384;13.420;2022-09-29T05:18:57;18.70;99.90
11256;HTU21D;5685;52.384;13.420;2022-09-29T05:22:00;18.70;99.90
11256;HTU21D;5685;52.384;13.420;2022-09-29T05:25:05;18.70;99.90
11256;HTU21D;5685;52.384;13.420;2022-09-29T05:28:08;18.70;99.90
11256;HTU21D;5685;52.384;13.420;2022-09-29T05:31:10;18.70;99.90
11256;HTU21D;5685;52.384;13.420;2022-09-29T05:34:13;18.70;99.90
11256;HTU21D;5685;52.384;13.420;2022-09-29T05:37:15;18.70;99.90
11256;HTU21D;5685;52.384;13.420;2022-09-29T05:40:19;18.70;99.90
11256;HTU21D;5685;52.384;13.420;2022-09-29T05:43:23;18.70;99.90
11256;HTU21D;5685;52.384;13.420;2022-09-29T05:46:26;18.80;99.90
11256;HTU21D;5685;52.384;13.420;2022-09-29T05:49:28;18.80;99.90
11256;HTU21D;5685;52.384;13.420;2022-09-29T05:52:32;18.80;99.90
11256;HTU21D;5685;52.384;13.420;2022-09-29T05:55:36;18.80;99.90
11256;HTU21D;5685;52.384;13.420;2022-09-29T05:58:39;18.80;99.90
11256;HTU21D;5685;52.384;13.420;2022-09-29T06:01:42;18.80;99.90
11256;HTU21D;5685;52.384;13.420;2022-09-29T06:04:44;18.70;99.90
11256;HTU21D;5685;52.384;13.420;2022-09-29T06:07:46;18.70;99.90
11256;HTU21D;5685;52.384;13.420;2022-09-29T06:10:50;18.70;99.90
11256;HTU21D;5685;52.384;13.420;2022-09-29T06:13:53;18.70;99.90
11256;HTU21D;5685;52.384;13.420;2022-09-29T06:16:55;18.70;99.90
11256;HTU21D;5685;52.384;13.420;2022-09-29T06:19:57;18.70;99.90
11256;HTU21D;5685;52.384;13.420;2022-09-29T06:23:00;18.70;99.90
11256;HTU21D;5685;52.384;13.420;2022-09-29T06:26:05;18.70;99.90
11256;HTU21D;5685;52.384;13.420;2022-09-29T06:29:08;18.70;99.90
11256;HTU21D;5685;52.384;13.420;2022-09-29T06:32:11;18.70;99.90
11256;HTU21D;5685;52.384;13.420;2022-09-29T06:35:13;18.70;99.90
11256;HTU21D;5685;52.384;13.420;2022-09-29T06:38:32;18.70;99.90
11256;HTU21D;5685;52.384;13.420;2022-09-29T06:41:36;18.70;99.90
11256;HTU21D;5685;52.384;13.420;2022-09-29T06:44:38;18.70;99.90
11256;HTU21D;5685;52.384;13.420;2022-09-29T06:47:40;18.60;99.90
11256;HTU21D;5685;52.384;13.420;2022-09-29T06:50:42;18.70;99.90
11256;HTU21D;5685;52.384;13.420;2022-09-29T06:53:44;18.60;99.90
11256;HTU21D;5685;52.384;13.420;2022-09-29T06:56:49;18.60;99.90
11256;HTU21D;5685;52.384;13.420;2022-09-29T06:59:51;18.60;99.90
11256;HTU21D;5685;52.384;13.420;2022-09-29T07:02:53;18.60;99.90
11256;HTU21D;5685;52.384;13.420;2022-09-29T07:05:56;18.60;99.90
11256;HTU21D;5685;52.384;13.420;2022-09-29T07:08:59;18.60;99.90
11256;HTU21D;5685;52.384;13.420;2022-09-29T07:12:02;18.60;99.90
11256;HTU21D;5685;52.384;13.420;2022-09-29T07:15:06;18.60;99.90
11256;HTU21D;5685;52.384;13.420;2022-09-29T07:18:09;18.60;99.90
11256;HTU21D;5685;52.384;13.420;2022-09-29T07:21:13;18.60;99.90
11256;HTU21D;5685;52.384;13.420;2022-09-29T07:24:17;18.60;99.90
11256;HTU21D;5685;52.384;13.420;2022-09-29T07:27:20;18.60;99.90
11256;HTU21D;5685;52.384;13.420;2022-09-29T07:30:23;18.60;99.90
11256;HTU21D;5685;52.384;13.420;2022-09-29T07:33:27;18.60;99.90
11256;HTU21D;5685;52.384;13.420;2022-09-29T07:36:29;18.60;99.90
11256;HTU21D;5685;52.384;13.420;2022-09-29T07:39:31;18.60;99.90
11256;HTU21D;5685;52.384;13.420;2022-09-29T07:42:35;18.60;99.90
11256;HTU21D;5685;52.384;13.420;2022-09-29T07:45:37;18.60;99.90
11256;HTU21D;5685;52.384;13.420;2022-09-29T07:48:39;18.60;99.90
11256;HTU21D;5685;52.384;13.420;2022-09-29T07:51:41;18.60;99.90
11256;HTU21D;5685;52.384;13.420;2022-09-29T07:54:44;18.60;99.90
11256;HTU21D;5685;52.384;13.420;2022-09-29T07:57:47;18.60;99.90
11256;HTU21D;5685;52.384;13.420;2022-09-29T08:00:53;18.60;99.90
11256;HTU21D;5685;52.384;13.420;2022-09-29T08:03:55;18.60;99.90
11256;HTU21D;5685;52.384;13.420;2022-09-29T08:06:57;18.60;99.90
11256;HTU21D;5685;52.384;13.420;2022-09-29T08:09:59;18.60;99.90
11256;HTU21D;5685;52.384;13.420;2022-09-29T08:13:03;18.60;99.90
11256;HTU21D;5685;52.384;13.420;2022-09-29T08:16:09;18.60;99.90
11256;HTU21D;5685;52.384;13.420;2022-09-29T08:19:12;18.60;99.90
11256;HTU21D;5685;52.384;13.420;2022-09-29T08:22:14;18.60;99.90
11256;HTU21D;5685;52.384;13.420;2022-09-29T08:25:17;18.60;99.90
11256;HTU21D;5685;52.384;13.420;2022-09-29T08:28:20;18.60;99.90
11256;HTU21D;5685;52.384;13.420;2022-09-29T08:31:22;18.60;99.90
11256;HTU21D;5685;52.384;13.420;2022-09-29T08:34:25;18.60;99.90
11256;HTU21D;5685;52.384;13.420;2022-09-29T08:37:27;18.60;99.90
11256;HTU21D;5685;52.384;13.420;2022-09-29T08:40:30;18.60;99.90
11256;HTU21D;5685;52.384;13.420;2022-09-29T08:43:37;18.60;99.90
11256;HTU21D;5685;52.384;13.420;2022-09-29T08:46:44;18.60;99.90
11256;HTU21D;5685;52.384;13.420;2022-09-29T08:49:52;18.60;99.90
11256;HTU21D;5685;52.384;13.420;2022-09-29T08:52:58;18.60;99.90
11256;HTU21D;5685;52.384;13.420;2022-09-29T08:56:06;18.60;99.90
11256;HTU21D;5685;52.384;13.420;2022-09-29T08:59:12;18.60;99.90
11256;HTU21D;5685;52.384;13.420;2022-09-29T09:02:43;18.60;99.90
11256;HTU21D;5685;52.384;13.420;2022-09-29T09:06:11;18.60;99.90
11256;HTU21D;5685;52.384;13.420;2022-09-29T09:09:27;18.60;99.90
11256;HTU21D;5685;52.384;13.420;2022-09-29T09:12:49;18.60;99.90
11256;HTU21D;5685;52.384;13.420;2022-09-29T09:16:23;18.60;99.90
11256;HTU21D;5685;52.384;13.420;2022-09-29T09:19:49;18.60;99.90
11256;HTU21D;5685;52.384;13.420;2022-09-29T09:23:03;18.60;99.90
11256;HTU21D;5685;52.384;13.420;2022-09-29T09:26:09;18.60;99.90
11256;HTU21D;5685;52.384;13.420;2022-09-29T09:29:18;18.60;99.90
11256;HTU21D;5685;52.384;13.420;2022-09-29T09:32:28;18.60;99.90
11256;HTU21D;5685;52.384;13.420;2022-09-29T09:35:36;18.60;99.90
11256;HTU21D;5685;52.384;13.420;2022-09-29T09:38:47;18.60;99.90
11256;HTU21D;5685;52.384;13.420;2022-09-29T09:41:55;18.60;99.90
11256;HTU21D;5685;52.384;13.420;2022-09-29T09:45:02;18.60;99.90
11256;HTU21D;5685;52.384;13.420;2022-09-29T09:48:12;18.60;99.90
11256;HTU21D;5685;52.384;13.420;2022-09-29T09:51:32;18.60;99.90
11256;HTU21D;5685;52.384;13.420;2022-09-29T09:54:41;18.60;99.90
11256;HTU21D;5685;52.384;13.420;2022-09-29T10:01:11;18.60;99.90
11256;HTU21D;5685;52.384;13.420;2022-09-29T10:04:15;18.60;99.90
11256;HTU21D;5685;52.384;13.420;2022-09-29T10:07:17;18.70;99.90
11256;HTU21D;5685;52.384;13.420;2022-09-29T10:10:25;18.70;99.90
11256;HTU21D;5685;52.384;13.420;2022-09-29T10:13:29;18.70;99.90
11256;HTU21D;5685;52.384;13.420;2022-09-29T10:16:36;18.70;99.90
11256;HTU21D;5685;52.384;13.420;2022-09-29T10:19:56;18.70;99.90
11256;HTU21D;5685;52.384;13.420;2022-09-29T10:23:22;18.70;99.90
11256;HTU21D;5685;52.384;13.420;2022-09-29T10:26:27;18.70;99.90
11256;HTU21D;5685;52.384;13.420;2022-09-29T10:29:36;18.70;99.90
11256;HTU21D;5685;52.384;13.420;2022-09-29T10:32:43;18.70;99.90
11256;HTU21D;5685;52.384;13.420;2022-09-29T10:35:47;18.70;99.90
11256;HTU21D;5685;52.384;13.420;2022-09-29T10:38:52;18.70;99.90
11256;HTU21D;5685;52.384;13.420;2022-09-29T10:41:56;18.80;99.90
11256;HTU21D;5685;52.384;13.420;2022-09-29T10:45:03;18.80;99.90
11256;HTU21D;5685;52.384;13.420;2022-09-29T10:48:13;18.80;99.90
11256;HTU21D;5685;52.384;13.420;2022-09-29T10:51:21;18.80;99.90
11256;HTU21D;5685;52.384;13.420;2022-09-29T10:54:26;18.80;99.90
11256;HTU21D;5685;52.384;13.420;2022-09-29T10:57:31;18.80;99.90
11256;HTU21D;5685;52.384;13.420;2022-09-29T11:00:35;18.80;99.90
11256;HTU21D;5685;52.384;13.420;2022-09-29T11:03:45;18.80;99.90
11256;HTU21D;5685;52.384;13.420;2022-09-29T11:06:50;18.80;99.90
11256;HTU21D;5685;52.384;13.420;2022-09-29T11:09:53;18.80;99.90
11256;HTU21D;5685;52.384;13.420;2022-09-29T11:12:56;18.90;99.90
11256;HTU21D;5685;52.384;13.420;2022-09-29T11:16:03;18.90;99.90
11256;HTU21D;5685;52.384;13.420;2022-09-29T11:19:10;18.90;99.90
11256;HTU21D;5685;52.384;13.420;2022-09-29T11:26:15;18.90;99.90
11256;HTU21D;5685;52.384;13.420;2022-09-29T11:29:29;18.90;99.90
11256;HTU21D;5685;52.384;13.420;2022-09-29T11:32:46;18.90;99.90
11256;HTU21D;5685;52.384;13.420;2022-09-29T11:35:58;18.90;99.90
11256;HTU21D;5685;52.384;13.420;2022-09-29T11:39:19;18.90;99.90
11256;HTU21D;5685;52.384;13.420;2022-09-29T11:42:39;18.90;99.90
11256;HTU21D;5685;52.384;13.420;2022-09-29T11:46:05;19.00;99.90
11256;HTU21D;5685;52.384;13.420;2022-09-29T11:49:33;19.00;99.90
11256;HTU21D;5685;52.384;13.420;2022-09-29T11:53:10;19.00;99.90
11256;HTU21D;5685;52.384;13.420;2022-09-29T11:56:31;19.00;99.90
11256;HTU21D;5685;52.384;13.420;2022-09-29T11:59:57;19.00;99.90
11256;HTU21D;5685;52.384;13.420;2022-09-29T12:03:18;19.00;99.90
11256;HTU21D;5685;52.384;13.420;2022-09-29T12:10:15;19.00;99.90
11256;HTU21D;5685;52.384;13.420;2022-09-29T12:13:41;19.00;99.90
11256;HTU21D;5685;52.384;13.420;2022-09-29T12:16:52;19.00;99.90
11256;HTU21D;5685;52.384;13.420;2022-09-29T12:20:00;19.00;99.90
11256;HTU21D;5685;52.384;13.420;2022-09-29T12:23:10;19.10;99.90
11256;HTU21D;5685;52.384;13.420;2022-09-29T12:26:17;19.10;99.90
11256;HTU21D;5685;52.384;13.420;2022-09-29T12:29:30;19.10;99.90
11256;HTU21D;5685;52.384;13.420;2022-09-29T12:32:37;19.10;99.90
11256;HTU21D;5685;52.384;13.420;2022-09-29T12:35:45;19.10;99.90
11256;HTU21D;5685;52.384;13.420;2022-09-29T12:38:53;19.10;99.90
11256;HTU21D;5685;52.384;13.420;2022-09-29T12:45:40;19.10;99.90
11256;HTU21D;5685;52.384;13.420;2022-09-29T12:48:53;19.10;99.90
11256;HTU21D;5685;52.384;13.420;2022-09-29T12:52:01;19.10;99.90
11256;HTU21D;5685;52.384;13.420;2022-09-29T12:55:13;19.20;99.90
11256;HTU21D;5685;52.384;13.420;2022-09-29T12:58:23;19.20;99.90
11256;HTU21D;5685;52.384;13.420;2022-09-29T13:01:32;19.20;99.90
11256;HTU21D;5685;52.384;13.420;2022-09-29T13:04:47;19.20;99.90
11256;HTU21D;5685;52.384;13.420;2022-09-29T13:08:26;19.20;99.90
11256;HTU21D;5685;52.384;13.420;2022-09-29T13:12:00;19.20;99.90
11256;HTU21D;5685;52.384;13.420;2022-09-29T13:15:26;19.20;99.90
11256;HTU21D;5685;52.384;13.420;2022-09-29T13:19:04;19.20;99.90
11256;HTU21D;5685;52.384;13.420;2022-09-29T13:22:29;19.20;99.90
11256;HTU21D;5685;52.384;13.420;2022-09-29T13:25:44;19.20;99.90
11256;HTU21D;5685;52.384;13.420;2022-09-29T13:28:53;19.20;99.90
11256;HTU21D;5685;52.384;13.420;2022-09-29T13:31:57;19.20;99.90
11256;HTU21D;5685;52.384;13.420;2022-09-29T13:35:01;19.30;99.90
11256;HTU21D;5685;52.384;13.420;2022-09-29T13:38:04;19.30;99.90
11256;HTU21D;5685;52.384;13.420;2022-09-29T13:41:11;19.30;99.90
11256;HTU21D;5685;52.384;13.420;2022-09-29T13:44:23;19.30;99.90
11256;HTU21D;5685;52.384;13.420;2022-09-29T13:47:31;19.30;99.90
11256;HTU21D;5685;52.384;13.420;2022-09-29T13:50:44;19.30;99.90
11256;HTU21D;5685;52.384;13.420;2022-09-29T13:54:20;19.30;99.90
11256;HTU21D;5685;52.384;13.420;2022-09-29T13:57:32;19.30;99.90
11256;HTU21D;5685;52.384;13.420;2022-09-29T14:00:41;19.30;99.90
11256;HTU21D;5685;52.384;13.420;2022-09-29T14:03:44;19.30;99.90
11256;HTU21D;5685;52.384;13.420;2022-09-29T14:06:48;19.30;99.90
11256;HTU21D;5685;52.384;13.420;2022-09-29T14:09:51;19.30;99.90
11256;HTU21D;5685;52.384;13.420;2022-09-29T14:12:57;19.30;99.90
11256;HTU21D;5685;52.384;13.420;2022-09-29T14:16:17;19.30;99.90
11256;HTU21D;5685;52.384;13.420;2022-09-29T14:19:41;19.30;99.90
11256;HTU21D;5685;52.384;13.420;2022-09-29T14:23:08;19.30;99.90
11256;HTU21D;5685;52.384;13.420;2022-09-29T14:26:42;19.30;99.90
11256;HTU21D;5685;52.384;13.420;2022-09-29T14:29:48;19.40;99.90
11256;HTU21D;5685;52.384;13.420;2022-09-29T14:32:55;19.40;99.90
11256;HTU21D;5685;52.384;13.420;2022-09-29T14:36:03;19.40;99.90
11256;HTU21D;5685;52.384;13.420;2022-09-29T14:39:10;19.40;99.90
11256;HTU21D;5685;52.384;13.420;2022-09-29T14:42:16;19.40;99.90
11256;HTU21D;5685;52.384;13.420;2022-09-29T14:45:18;19.40;99.90
11256;HTU21D;5685;52.384;13.420;2022-09-29T14:48:44;19.40;99.90
11256;HTU21D;5685;52.384;13.420;2022-09-29T14:52:18;19.40;99.90
11256;HTU21D;5685;52.384;13.420;2022-09-29T14:55:34;19.40;99.90
11256;HTU21D;5685;52.384;13.420;2022-09-29T14:58:49;19.40;99.90
11256;HTU21D;5685;52.384;13.420;2022-09-29T15:02:16;19.40;99.90
11256;HTU21D;5685;52.384;13.420;2022-09-29T15:05:25;19.40;99.90
11256;HTU21D;5685;52.384;13.420;2022-09-29T15:08:30;19.40;99.90
11256;HTU21D;5685;52.384;13.420;2022-09-29T15:11:36;19.40;99.90
11256;HTU21D;5685;52.384;13.420;2022-09-29T15:14:44;19.40;99.90
11256;HTU21D;5685;52.384;13.420;2022-09-29T15:17:52;19.40;99.90
11256;HTU21D;5685;52.384;13.420;2022-09-29T15:20:59;19.40;99.90
11256;HTU21D;5685;52.384;13.420;2022-09-29T15:24:29;19.40;99.90
11256;HTU21D;5685;52.384;13.420;2022-09-29T15:27:44;19.40;99.90
11256;HTU21D;5685;52.384;13.420;2022-09-29T15:30:49;19.40;99.90
11256;HTU21D;5685;52.384;13.420;2022-09-29T15:33:54;19.40;99.90
11256;HTU21D;5685;52.384;13.420;2022-09-29T15:36:57;19.40;99.90
11256;HTU21D;5685;52.384;13.420;2022-09-29T15:40:02;19.40;99.90
11256;HTU21D;5685;52.384;13.420;2022-09-29T15:43:18;19.40;99.90
11256;HTU21D;5685;52.384;13.420;2022-09-29T15:46:24;19.40;99.90
11256;HTU21D;5685;52.384;13.420;2022-09-29T15:49:29;19.50;99.90
11256;HTU21D;5685;52.384;13.420;2022-09-29T15:52:31;19.40;99.90
11256;HTU21D;5685;52.384;13.420;2022-09-29T15:55:35;19.50;99.90
11256;HTU21D;5685;52.384;13.420;2022-09-29T15:58:43;19.50;99.90
11256;HTU21D;5685;52.384;13.420;2022-09-29T16:01:48;19.50;99.90
11256;HTU21D;5685;52.384;13.420;2022-09-29T16:04:53;19.50;99.90
11256;HTU21D;5685;52.384;13.420;2022-09-29T16:07:59;19.50;99.90
11256;HTU21D;5685;52.384;13.420;2022-09-29T16:11:05;19.50;99.90
11256;HTU21D;5685;52.384;13.420;2022-09-29T16:14:15;19.50;99.90
11256;HTU21D;5685;52.384;13.420;2022-09-29T16:17:20;19.50;99.90
11256;HTU21D;5685;52.384;13.420;2022-09-29T16:20:25;19.50;99.90
11256;HTU21D;5685;52.384;13.420;2022-09-29T16:23:35;19.50;99.90
11256;HTU21D;5685;52.384;13.420;2022-09-29T16:26:41;19.50;99.90
11256;HTU21D;5685;52.384;13.420;2022-09-29T16:30:04;19.50;99.90
11256;HTU21D;5685;52.384;13.420;2022-09-29T16:33:21;19.50;99.90
11256;HTU21D;5685;52.384;13.420;2022-09-29T16:36:25;19.50;99.90
11256;HTU21D;5685;52.384;13.420;2022-09-29T16:39:29;19.50;99.90
11256;HTU21D;5685;52.384;13.420;2022-09-29T16:42:33;19.50;99.90
11256;HTU21D;5685;52.384;13.420;2022-09-29T16:45:37;19.50;99.90
11256;HTU21D;5685;52.384;13.420;2022-09-29T16:48:42;19.50;99.90
11256;HTU21D;5685;52.384;13.420;2022-09-29T16:51:47;19.50;99.90
11256;HTU21D;5685;52.384;13.420;2022-09-29T16:54:49;19.50;99.90
11256;HTU21D;5685;52.384;13.420;2022-09-29T16:58:03;19.50;99.90
11256;HTU21D;5685;52.384;13.420;2022-09-29T17:01:10;19.50;99.90
11256;HTU21D;5685;52.384;13.420;2022-09-29T17:04:12;19.50;99.90
11256;HTU21D;5685;52.384;13.420;2022-09-29T17:07:16;19.50;99.90
11256;HTU21D;5685;52.384;13.420;2022-09-29T17:10:20;19.50;99.90
11256;HTU21D;5685;52.384;13.420;2022-09-29T17:13:23;19.50;99.90
11256;HTU21D;5685;52.384;13.420;2022-09-29T17:16:27;19.50;99.90
11256;HTU21D;5685;52.384;13.420;2022-09-29T17:19:30;19.50;99.90
11256;HTU21D;5685;52.384;13.420;2022-09-29T17:22:34;19.60;99.90
11256;HTU21D;5685;52.384;13.420;2022-09-29T17:25:39;19.60;99.90
11256;HTU21D;5685;52.384;13.420;2022-09-29T17:28:43;19.60;99.90
11256;HTU21D;5685;52.384;13.420;2022-09-29T17:31:45;19.60;99.90
11256;HTU21D;5685;52.384;13.420;2022-09-29T17:34:47;19.60;99.90
11256;HTU21D;5685;52.384;13.420;2022-09-29T17:37:49;19.60;99.90
11256;HTU21D;5685;52.384;13.420;2022-09-29T17:40:56;19.60;99.90
11256;HTU21D;5685;52.384;13.420;2022-09-29T17:44:01;19.60;99.90
11256;HTU21D;5685;52.384;13.420;2022-09-29T17:47:09;19.60;99.90
11256;HTU21D;5685;52.384;13.420;2022-09-29T17:50:20;19.60;99.90
11256;HTU21D;5685;52.384;13.420;2022-09-29T17:53:25;19.60;99.90
11256;HTU21D;5685;52.384;13.420;2022-09-29T17:56:27;19.60;99.90
11256;HTU21D;5685;52.384;13.420;2022-09-29T17:59:36;19.60;99.90
11256;HTU21D;5685;52.384;13.420;2022-09-29T18:02:41;19.60;99.90
11256;HTU21D;5685;52.384;13.420;2022-09-29T18:05:44;19.60;99.90
11256;HTU21D;5685;52.384;13.420;2022-09-29T18:08:48;19.60;99.90
11256;HTU21D;5685;52.384;13.420;2022-09-29T18:11:50;19.60;99.90
11256;HTU21D;5685;52.384;13.420;2022-09-29T18:14:53;19.60;99.90
11256;HTU21D;5685;52.384;13.420;2022-09-29T18:17:57;19.60;99.90
11256;HTU21D;5685;52.384;13.420;2022-09-29T18:21:02;19.60;99.90
11256;HTU21D;5685;52.384;13.420;2022-09-29T18:24:05;19.60;99.90
11256;HTU21D;5685;52.384;13.420;2022-09-29T18:27:09;19.60;99.90
11256;HTU21D;5685;52.384;13.420;2022-09-29T18:30:16;19.60;99.90
11256;HTU21D;5685;52.384;13.420;2022-09-29T18:33:21;19.60;99.90
11256;HTU21D;5685;52.384;13.420;2022-09-29T18:36:23;19.60;99.90
11256;HTU21D;5685;52.384;13.420;2022-09-29T18:39:25;19.60;99.90
11256;HTU21D;5685;52.384;13.420;2022-09-29T18:42:27;19.50;99.90
11256;HTU21D;5685;52.384;13.420;2022-09-29T18:45:33;19.50;99.90
11256;HTU21D;5685;52.384;13.420;2022-09-29T18:48:38;19.60;99.90
11256;HTU21D;5685;52.384;13.420;2022-09-29T18:51:40;19.60;99.90
11256;HTU21D;5685;52.384;13.420;2022-09-29T18:54:42;19.60;99.90
11256;HTU21D;5685;52.384;13.420;2022-09-29T18:57:45;19.60;99.90
11256;HTU21D;5685;52.384;13.420;2022-09-29T19:00:49;19.60;99.90
11256;HTU21D;5685;52.384;13.420;2022-09-29T19:03:55;19.60;99.90
11256;HTU21D;5685;52.384;13.420;2022-09-29T19:06:58;19.60;99.90
11256;HTU21D;5685;52.384;13.420;2022-09-29T19:10:00;19.60;99.90
11256;HTU21D;5685;52.384;13.420;2022-09-29T19:13:04;19.60;99.90
11256;HTU21D;5685;52.384;13.420;2022-09-29T19:16:08;19.60;99.90
11256;HTU21D;5685;52.384;13.420;2022-09-29T19:19:12;19.70;99.90
11256;HTU21D;5685;52.384;13.420;2022-09-29T19:22:15;19.60;99.90
11256;HTU21D;5685;52.384;13.420;2022-09-29T19:25:20;19.60;99.90
11256;HTU21D;5685;52.384;13.420;2022-09-29T19:28:23;19.70;99.90
11256;HTU21D;5685;52.384;13.420;2022-09-29T19:31:27;19.70;99.90
11256;HTU21D;5685;52.384;13.420;2022-09-29T19:34:31;19.70;99.90
11256;HTU21D;5685;52.384;13.420;2022-09-29T19:37:34;19.70;99.90
11256;HTU21D;5685;52.384;13.420;2022-09-29T19:40:37;19.70;99.90
11256;HTU21D;5685;52.384;13.420;2022-09-29T19:43:39;19.70;99.90